sensor_id;sensor_type;location;lat;lon;timestamp;temperature;humidity
22071;DHT22;11200;51.488;6.668;2023-05-10T00:01:58;15.40;99.90
22071;DHT22;11200;51.488;6.668;2023-05-10T00:04:24;14.60;99.90
22071;DHT22;11200;51.488;6.668;2023-05-10T00:06:53;14.60;99.90
22071;DHT22;11200;51.488;6.668;2023-05-10T00:09:18;14.80;99.90
22071;DHT22;11200;51.488;6.668;2023-05-10T00:11:44;14.70;99.90
22071;DHT22;11200;51.488;6.668;2023-05-10T00:14:10;14.60;99.90
22071;DHT22;11200;51.488;6.668;2023-05-10T00:16:37;14.80;99.90
22071;DHT22;11200;51.488;6.668;2023-05-10T00:19:03;14.50;99.90
22071;DHT22;11200;51.488;6.668;2023-05-10T00:21:28;14.80;99.90
22071;DHT22;11200;51.488;6.668;2023-05-10T00:23:54;14.50;99.90
22071;DHT22;11200;51.488;6.668;2023-05-10T00:26:20;14.40;99.90
22071;DHT22;11200;51.488;6.668;2023-05-10T00:28:46;14.60;99.90
22071;DHT22;11200;51.488;6.668;2023-05-10T00:31:11;14.60;99.90
22071;DHT22;11200;51.488;6.668;2023-05-10T00:33:37;14.70;99.90
22071;DHT22;11200;51.488;6.668;2023-05-10T00:36:03;14.40;99.90
22071;DHT22;11200;51.488;6.668;2023-05-10T00:38:28;14.40;99.90
22071;DHT22;11200;51.488;6.668;2023-05-10T00:40:54;14.80;99.90
22071;DHT22;11200;51.488;6.668;2023-05-10T00:43:20;14.30;99.90
22071;DHT22;11200;51.488;6.668;2023-05-10T00:45:45;14.70;99.90
22071;DHT22;11200;51.488;6.668;2023-05-10T00:48:11;14.40;99.90
22071;DHT22;11200;51.488;6.668;2023-05-10T00:50:38;14.60;99.90
22071;DHT22;11200;51.488;6.668;2023-05-10T00:53:04;14.60;99.90
22071;DHT22;11200;51.488;6.668;2023-05-10T00:55:30;14.30;99.90
22071;DHT22;11200;51.488;6.668;2023-05-10T00:57:56;15.00;99.90
22071;DHT22;11200;51.488;6.668;2023-05-10T01:00:21;15.00;99.90
22071;DHT22;11200;51.488;6.668;2023-05-10T01:02:47;14.50;99.90
22071;DHT22;11200;51.488;6.668;2023-05-10T01:05:13;14.40;99.90
22071;DHT22;11200;51.488;6.668;2023-05-10T01:07:39;14.50;99.90
22071;DHT22;11200;51.488;6.668;2023-05-10T01:10:06;14.40;99.90
22071;DHT22;11200;51.488;6.668;2023-05-10T01:12:33;14.30;99.90
22071;DHT22;11200;51.488;6.668;2023-05-10T01:15:00;14.50;99.90
22071;DHT22;11200;51.488;6.668;2023-05-10T01:17:27;14.20;99.90
22071;DHT22;11200;51.488;6.668;2023-05-10T01:19:52;14.50;99.90
22071;DHT22;11200;51.488;6.668;2023-05-10T01:33:19;14.70;99.90
22071;DHT22;11200;51.488;6.668;2023-05-10T01:35:55;14.20;99.90
22071;DHT22;11200;51.488;6.668;2023-05-10T01:38:32;14.10;99.90
22071;DHT22;11200;51.488;6.668;2023-05-10T01:46:43;14.40;99.90
22071;DHT22;11200;51.488;6.668;2023-05-10T01:49:31;14.20;99.90
22071;DHT22;11200;51.488;6.668;2023-05-10T01:52:08;14.00;99.90
22071;DHT22;11200;51.488;6.668;2023-05-10T01:54:35;14.20;99.90
22071;DHT22;11200;51.488;6.668;2023-05-10T01:57:05;14.30;99.90
22071;DHT22;11200;51.488;6.668;2023-05-10T01:59:35;14.40;99.90
22071;DHT22;11200;51.488;6.668;2023-05-10T02:02:02;14.10;99.90
22071;DHT22;11200;51.488;6.668;2023-05-10T02:04:31;14.70;99.90
22071;DHT22;11200;51.488;6.668;2023-05-10T02:06:57;14.20;99.90
22071;DHT22;11200;51.488;6.668;2023-05-10T02:09:24;14.10;99.90
22071;DHT22;11200;51.488;6.668;2023-05-10T02:11:50;14.30;99.90
22071;DHT22;11200;51.488;6.668;2023-05-10T02:14:17;14.20;99.90
22071;DHT22;11200;51.488;6.668;2023-05-10T02:16:45;14.00;99.90
22071;DHT22;11200;51.488;6.668;2023-05-10T02:19:12;14.00;99.90
22071;DHT22;11200;51.488;6.668;2023-05-10T02:21:39;13.90;99.90
22071;DHT22;11200;51.488;6.668;2023-05-10T02:24:06;14.00;99.90
22071;DHT22;11200;51.488;6.668;2023-05-10T02:26:33;14.00;99.90
22071;DHT22;11200;51.488;6.668;2023-05-10T02:29:02;14.30;99.90
22071;DHT22;11200;51.488;6.668;2023-05-10T02:31:30;14.10;99.90
22071;DHT22;11200;51.488;6.668;2023-05-10T02:33:57;13.90;99.90
22071;DHT22;11200;51.488;6.668;2023-05-10T02:36:24;13.80;99.90
22071;DHT22;11200;51.488;6.668;2023-05-10T02:38:53;14.50;99.90
22071;DHT22;11200;51.488;6.668;2023-05-10T02:41:22;14.70;99.90
22071;DHT22;11200;51.488;6.668;2023-05-10T02:43:51;13.90;99.90
22071;DHT22;11200;51.488;6.668;2023-05-10T02:46:18;14.40;99.90
22071;DHT22;11200;51.488;6.668;2023-05-10T02:48:44;14.40;99.90
22071;DHT22;11200;51.488;6.668;2023-05-10T02:51:12;13.90;99.90
22071;DHT22;11200;51.488;6.668;2023-05-10T02:53:42;13.70;99.90
22071;DHT22;11200;51.488;6.668;2023-05-10T02:56:15;14.50;99.90
22071;DHT22;11200;51.488;6.668;2023-05-10T02:58:45;13.90;99.90
22071;DHT22;11200;51.488;6.668;2023-05-10T03:01:12;14.40;99.90
22071;DHT22;11200;51.488;6.668;2023-05-10T03:03:39;13.80;99.90
22071;DHT22;11200;51.488;6.668;2023-05-10T03:06:05;13.90;99.90
22071;DHT22;11200;51.488;6.668;2023-05-10T03:08:32;13.80;99.90
22071;DHT22;11200;51.488;6.668;2023-05-10T03:14:16;13.80;99.90
22071;DHT22;11200;51.488;6.668;2023-05-10T03:16:50;13.80;99.90
22071;DHT22;11200;51.488;6.668;2023-05-10T03:19:24;14.60;99.90
22071;DHT22;11200;51.488;6.668;2023-05-10T03:21:52;13.90;99.90
22071;DHT22;11200;51.488;6.668;2023-05-10T03:24:21;13.80;99.90
22071;DHT22;11200;51.488;6.668;2023-05-10T03:26:49;13.80;99.90
22071;DHT22;11200;51.488;6.668;2023-05-10T03:29:16;13.70;99.90
22071;DHT22;11200;51.488;6.668;2023-05-10T03:31:42;14.00;99.90
22071;DHT22;11200;51.488;6.668;2023-05-10T03:34:08;14.30;99.90
22071;DHT22;11200;51.488;6.668;2023-05-10T03:36:38;13.80;99.90
22071;DHT22;11200;51.488;6.668;2023-05-10T03:39:04;13.80;99.90
22071;DHT22;11200;51.488;6.668;2023-05-10T03:41:29;14.10;99.90
22071;DHT22;11200;51.488;6.668;2023-05-10T03:43:55;13.70;99.90
22071;DHT22;11200;51.488;6.668;2023-05-10T03:46:21;13.70;99.90
22071;DHT22;11200;51.488;6.668;2023-05-10T03:48:46;14.00;99.90
22071;DHT22;11200;51.488;6.668;2023-05-10T03:51:12;13.80;99.90
22071;DHT22;11200;51.488;6.668;2023-05-10T03:53:37;13.70;99.90
22071;DHT22;11200;51.488;6.668;2023-05-10T03:56:03;14.10;99.90
22071;DHT22;11200;51.488;6.668;2023-05-10T03:58:29;13.70;99.90
22071;DHT22;11200;51.488;6.668;2023-05-10T04:00:54;13.70;99.90
22071;DHT22;11200;51.488;6.668;2023-05-10T04:03:20;14.20;99.90
22071;DHT22;11200;51.488;6.668;2023-05-10T04:05:46;14.00;99.90
22071;DHT22;11200;51.488;6.668;2023-05-10T04:08:11;13.90;99.90
22071;DHT22;11200;51.488;6.668;2023-05-10T04:10:37;14.20;99.90
22071;DHT22;11200;51.488;6.668;2023-05-10T04:13:02;13.90;99.90
22071;DHT22;11200;51.488;6.668;2023-05-10T04:15:28;13.60;99.90
22071;DHT22;11200;51.488;6.668;2023-05-10T04:17:54;13.90;99.90
22071;DHT22;11200;51.488;6.668;2023-05-10T04:20:19;13.60;99.90
22071;DHT22;11200;51.488;6.668;2023-05-10T04:22:45;13.70;99.90
22071;DHT22;11200;51.488;6.668;2023-05-10T04:25:11;14.20;99.90
22071;DHT22;11200;51.488;6.668;2023-05-10T04:27:36;13.70;99.90
22071;DHT22;11200;51.488;6.668;2023-05-10T04:30:03;13.70;99.90
22071;DHT22;11200;51.488;6.668;2023-05-10T04:32:29;13.70;99.90
22071;DHT22;11200;51.488;6.668;2023-05-10T04:34:54;14.20;99.90
22071;DHT22;11200;51.488;6.668;2023-05-10T04:37:20;13.90;99.90
22071;DHT22;11200;51.488;6.668;2023-05-10T04:39:46;13.90;99.90
22071;DHT22;11200;51.488;6.668;2023-05-10T04:42:12;13.90;99.90
22071;DHT22;11200;51.488;6.668;2023-05-10T04:44:40;13.70;99.90
22071;DHT22;11200;51.488;6.668;2023-05-10T04:47:06;13.70;99.90
22071;DHT22;11200;51.488;6.668;2023-05-10T04:49:32;14.30;99.90
22071;DHT22;11200;51.488;6.668;2023-05-10T04:52:03;13.60;99.90
22071;DHT22;11200;51.488;6.668;2023-05-10T04:54:28;13.70;99.90
22071;DHT22;11200;51.488;6.668;2023-05-10T04:56:54;13.80;99.90
22071;DHT22;11200;51.488;6.668;2023-05-10T04:59:19;14.20;99.90
22071;DHT22;11200;51.488;6.668;2023-05-10T05:01:45;13.80;99.90
22071;DHT22;11200;51.488;6.668;2023-05-10T05:04:11;14.30;99.90
22071;DHT22;11200;51.488;6.668;2023-05-10T05:06:36;13.70;99.90
22071;DHT22;11200;51.488;6.668;2023-05-10T05:09:02;13.80;99.90
22071;DHT22;11200;51.488;6.668;2023-05-10T05:11:28;13.80;99.90
22071;DHT22;11200;51.488;6.668;2023-05-10T05:13:53;13.70;99.90
22071;DHT22;11200;51.488;6.668;2023-05-10T05:16:19;14.10;99.90
22071;DHT22;11200;51.488;6.668;2023-05-10T05:18:45;14.20;99.90
22071;DHT22;11200;51.488;6.668;2023-05-10T05:21:17;13.80;99.90
22071;DHT22;11200;51.488;6.668;2023-05-10T05:23:43;13.90;99.90
22071;DHT22;11200;51.488;6.668;2023-05-10T05:26:09;14.30;99.90
22071;DHT22;11200;51.488;6.668;2023-05-10T05:28:35;14.00;99.90
22071;DHT22;11200;51.488;6.668;2023-05-10T05:31:03;14.70;99.90
22071;DHT22;11200;51.488;6.668;2023-05-10T05:33:29;14.10;99.90
22071;DHT22;11200;51.488;6.668;2023-05-10T05:35:55;13.80;99.90
22071;DHT22;11200;51.488;6.668;2023-05-10T05:38:20;14.50;99.90
22071;DHT22;11200;51.488;6.668;2023-05-10T05:40:46;13.90;99.90
22071;DHT22;11200;51.488;6.668;2023-05-10T05:43:11;13.90;99.90
22071;DHT22;11200;51.488;6.668;2023-05-10T05:45:37;13.90;99.90
22071;DHT22;11200;51.488;6.668;2023-05-10T05:48:03;13.90;99.90
22071;DHT22;11200;51.488;6.668;2023-05-10T05:50:28;13.80;99.90
22071;DHT22;11200;51.488;6.668;2023-05-10T05:52:54;13.90;99.90
22071;DHT22;11200;51.488;6.668;2023-05-10T05:55:20;13.90;99.90
22071;DHT22;11200;51.488;6.668;2023-05-10T05:57:45;13.90;99.90
22071;DHT22;11200;51.488;6.668;2023-05-10T06:00:11;13.90;99.90
22071;DHT22;11200;51.488;6.668;2023-05-10T06:02:37;13.90;99.90
22071;DHT22;11200;51.488;6.668;2023-05-10T06:05:03;13.90;99.90
22071;DHT22;11200;51.488;6.668;2023-05-10T06:07:29;13.90;99.90
22071;DHT22;11200;51.488;6.668;2023-05-10T06:10:01;14.00;99.90
22071;DHT22;11200;51.488;6.668;2023-05-10T06:12:27;14.00;99.90
22071;DHT22;11200;51.488;6.668;2023-05-10T06:14:55;14.00;99.90
22071;DHT22;11200;51.488;6.668;2023-05-10T06:17:21;14.00;99.90
22071;DHT22;11200;51.488;6.668;2023-05-10T06:19:47;14.00;99.90
22071;DHT22;11200;51.488;6.668;2023-05-10T06:22:12;14.00;99.90
22071;DHT22;11200;51.488;6.668;2023-05-10T06:24:39;14.00;99.90
22071;DHT22;11200;51.488;6.668;2023-05-10T06:27:06;14.00;99.90
22071;DHT22;11200;51.488;6.668;2023-05-10T06:29:31;14.00;99.90
22071;DHT22;11200;51.488;6.668;2023-05-10T06:31:57;14.10;99.90
22071;DHT22;11200;51.488;6.668;2023-05-10T06:34:23;14.00;99.90
22071;DHT22;11200;51.488;6.668;2023-05-10T06:36:49;14.10;99.90
22071;DHT22;11200;51.488;6.668;2023-05-10T06:39:17;14.10;99.90
22071;DHT22;11200;51.488;6.668;2023-05-10T06:41:42;14.10;99.90
22071;DHT22;11200;51.488;6.668;2023-05-10T06:44:08;14.10;99.90
22071;DHT22;11200;51.488;6.668;2023-05-10T06:46:34;14.10;99.90
22071;DHT22;11200;51.488;6.668;2023-05-10T06:49:02;14.10;99.90
22071;DHT22;11200;51.488;6.668;2023-05-10T06:51:29;14.10;99.90
22071;DHT22;11200;51.488;6.668;2023-05-10T06:53:56;14.10;99.90
22071;DHT22;11200;51.488;6.668;2023-05-10T06:56:21;14.20;99.90
22071;DHT22;11200;51.488;6.668;2023-05-10T06:58:47;14.20;99.90
22071;DHT22;11200;51.488;6.668;2023-05-10T07:01:13;14.20;99.90
22071;DHT22;11200;51.488;6.668;2023-05-10T07:03:41;14.20;99.90
22071;DHT22;11200;51.488;6.668;2023-05-10T07:06:06;14.20;99.90
22071;DHT22;11200;51.488;6.668;2023-05-10T07:08:33;14.30;99.90
22071;DHT22;11200;51.488;6.668;2023-05-10T07:11:03;14.30;99.90
22071;DHT22;11200;51.488;6.668;2023-05-10T07:13:30;14.30;99.90
22071;DHT22;11200;51.488;6.668;2023-05-10T07:15:57;14.30;99.90
22071;DHT22;11200;51.488;6.668;2023-05-10T07:18:22;14.30;99.90
22071;DHT22;11200;51.488;6.668;2023-05-10T07:20:48;14.40;99.90
22071;DHT22;11200;51.488;6.668;2023-05-10T07:23:14;14.40;99.90
22071;DHT22;11200;51.488;6.668;2023-05-10T07:25:39;14.40;99.90
22071;DHT22;11200;51.488;6.668;2023-05-10T07:28:05;14.40;99.90
22071;DHT22;11200;51.488;6.668;2023-05-10T07:30:31;14.50;99.90
22071;DHT22;11200;51.488;6.668;2023-05-10T07:32:56;14.50;99.90
22071;DHT22;11200;51.488;6.668;2023-05-10T07:35:22;14.50;99.90
22071;DHT22;11200;51.488;6.668;2023-05-10T07:37:47;14.60;99.90
22071;DHT22;11200;51.488;6.668;2023-05-10T07:40:13;14.60;99.90
22071;DHT22;11200;51.488;6.668;2023-05-10T07:42:39;14.60;99.90
22071;DHT22;11200;51.488;6.668;2023-05-10T07:45:05;14.70;99.90
22071;DHT22;11200;51.488;6.668;2023-05-10T07:47:30;14.70;99.90
22071;DHT22;11200;51.488;6.668;2023-05-10T07:49:57;14.70;99.90
22071;DHT22;11200;51.488;6.668;2023-05-10T07:52:23;14.70;99.90
22071;DHT22;11200;51.488;6.668;2023-05-10T07:54:49;14.80;99.90
22071;DHT22;11200;51.488;6.668;2023-05-10T07:57:15;14.80;99.90
22071;DHT22;11200;51.488;6.668;2023-05-10T07:59:43;14.90;99.90
22071;DHT22;11200;51.488;6.668;2023-05-10T08:02:09;14.90;99.90
22071;DHT22;11200;51.488;6.668;2023-05-10T08:04:34;14.90;99.90
22071;DHT22;11200;51.488;6.668;2023-05-10T08:07:00;15.00;99.90
22071;DHT22;11200;51.488;6.668;2023-05-10T08:09:25;15.00;99.90
22071;DHT22;11200;51.488;6.668;2023-05-10T08:11:51;15.10;99.90
22071;DHT22;11200;51.488;6.668;2023-05-10T08:14:17;15.10;99.90
22071;DHT22;11200;51.488;6.668;2023-05-10T08:16:42;15.20;99.90
22071;DHT22;11200;51.488;6.668;2023-05-10T08:19:08;15.20;99.90
22071;DHT22;11200;51.488;6.668;2023-05-10T08:21:34;15.30;99.90
22071;DHT22;11200;51.488;6.668;2023-05-10T08:23:59;15.30;99.90
22071;DHT22;11200;51.488;6.668;2023-05-10T08:26:25;15.30;99.90
22071;DHT22;11200;51.488;6.668;2023-05-10T08:28:51;15.30;99.90
22071;DHT22;11200;51.488;6.668;2023-05-10T08:31:16;15.40;99.90
22071;DHT22;11200;51.488;6.668;2023-05-10T08:33:43;15.50;99.90
22071;DHT22;11200;51.488;6.668;2023-05-10T08:36:08;15.50;99.90
22071;DHT22;11200;51.488;6.668;2023-05-10T08:38:34;15.60;99.90
22071;DHT22;11200;51.488;6.668;2023-05-10T08:41:02;15.80;99.90
22071;DHT22;11200;51.488;6.668;2023-05-10T08:43:28;15.90;99.90
22071;DHT22;11200;51.488;6.668;2023-05-10T08:45:55;15.90;99.90
22071;DHT22;11200;51.488;6.668;2023-05-10T08:48:24;16.10;99.90
22071;DHT22;11200;51.488;6.668;2023-05-10T08:50:53;16.10;99.90
22071;DHT22;11200;51.488;6.668;2023-05-10T08:53:20;16.20;99.90
22071;DHT22;11200;51.488;6.668;2023-05-10T08:55:47;16.30;99.90
22071;DHT22;11200;51.488;6.668;2023-05-10T08:58:12;16.20;99.90
22071;DHT22;11200;51.488;6.668;2023-05-10T09:00:38;16.40;99.90
22071;DHT22;11200;51.488;6.668;2023-05-10T09:03:05;16.50;99.90
22071;DHT22;11200;51.488;6.668;2023-05-10T09:05:31;16.50;99.90
22071;DHT22;11200;51.488;6.668;2023-05-10T09:07:57;16.50;99.90
22071;DHT22;11200;51.488;6.668;2023-05-10T09:10:26;16.50;99.90
22071;DHT22;11200;51.488;6.668;2023-05-10T09:12:53;16.60;99.90
22071;DHT22;11200;51.488;6.668;2023-05-10T09:15:21;16.60;99.90
22071;DHT22;11200;51.488;6.668;2023-05-10T09:17:49;16.60;99.90
22071;DHT22;11200;51.488;6.668;2023-05-10T09:20:15;16.60;99.90
22071;DHT22;11200;51.488;6.668;2023-05-10T09:22:42;16.60;99.90
22071;DHT22;11200;51.488;6.668;2023-05-10T09:25:10;16.60;99.90
22071;DHT22;11200;51.488;6.668;2023-05-10T09:27:40;16.60;99.90
22071;DHT22;11200;51.488;6.668;2023-05-10T09:30:07;16.60;99.90
22071;DHT22;11200;51.488;6.668;2023-05-10T09:32:47;16.50;99.90
22071;DHT22;11200;51.488;6.668;2023-05-10T09:35:17;16.50;99.90
22071;DHT22;11200;51.488;6.668;2023-05-10T09:37:47;16.50;99.90
22071;DHT22;11200;51.488;6.668;2023-05-10T09:40:15;16.50;99.90
22071;DHT22;11200;51.488;6.668;2023-05-10T09:42:42;16.50;99.90
22071;DHT22;11200;51.488;6.668;2023-05-10T09:45:08;16.40;99.90
22071;DHT22;11200;51.488;6.668;2023-05-10T09:47:35;16.40;99.90
22071;DHT22;11200;51.488;6.668;2023-05-10T09:50:02;16.40;99.90
22071;DHT22;11200;51.488;6.668;2023-05-10T09:52:46;16.40;99.90
22071;DHT22;11200;51.488;6.668;2023-05-10T09:55:12;16.40;99.90
22071;DHT22;11200;51.488;6.668;2023-05-10T09:57:38;16.40;99.90
22071;DHT22;11200;51.488;6.668;2023-05-10T10:00:05;16.30;99.90
22071;DHT22;11200;51.488;6.668;2023-05-10T10:02:31;16.30;99.90
22071;DHT22;11200;51.488;6.668;2023-05-10T10:04:59;16.30;99.90
22071;DHT22;11200;51.488;6.668;2023-05-10T10:07:26;16.30;99.90
22071;DHT22;11200;51.488;6.668;2023-05-10T10:09:52;16.20;99.90
22071;DHT22;11200;51.488;6.668;2023-05-10T10:12:20;16.20;99.90
22071;DHT22;11200;51.488;6.668;2023-05-10T10:14:47;16.20;99.90
22071;DHT22;11200;51.488;6.668;2023-05-10T10:17:13;16.20;99.90
22071;DHT22;11200;51.488;6.668;2023-05-10T10:19:39;16.20;99.90
22071;DHT22;11200;51.488;6.668;2023-05-10T10:22:05;16.20;99.90
22071;DHT22;11200;51.488;6.668;2023-05-10T10:24:31;16.20;99.90
22071;DHT22;11200;51.488;6.668;2023-05-10T10:27:09;16.30;99.90
22071;DHT22;11200;51.488;6.668;2023-05-10T10:30:28;16.20;99.90
22071;DHT22;11200;51.488;6.668;2023-05-10T10:35:25;16.30;99.90
22071;DHT22;11200;51.488;6.668;2023-05-10T10:37:51;16.30;99.90
22071;DHT22;11200;51.488;6.668;2023-05-10T10:40:27;16.30;99.90
22071;DHT22;11200;51.488;6.668;2023-05-10T10:42:54;16.40;99.90
22071;DHT22;11200;51.488;6.668;2023-05-10T10:45:40;16.40;99.90
22071;DHT22;11200;51.488;6.668;2023-05-10T10:48:22;16.40;99.90
22071;DHT22;11200;51.488;6.668;2023-05-10T10:50:56;16.40;99.90
22071;DHT22;11200;51.488;6.668;2023-05-10T10:53:22;16.50;99.90
22071;DHT22;11200;51.488;6.668;2023-05-10T10:55:48;16.50;99.90
22071;DHT22;11200;51.488;6.668;2023-05-10T10:58:29;16.50;99.90
22071;DHT22;11200;51.488;6.668;2023-05-10T11:01:11;16.60;99.90
22071;DHT22;11200;51.488;6.668;2023-05-10T11:03:37;16.60;99.90
22071;DHT22;11200;51.488;6.668;2023-05-10T11:06:03;16.60;99.90
22071;DHT22;11200;51.488;6.668;2023-05-10T11:08:30;16.60;99.90
22071;DHT22;11200;51.488;6.668;2023-05-10T11:13:32;16.60;99.90
22071;DHT22;11200;51.488;6.668;2023-05-10T11:15:58;16.60;99.90
22071;DHT22;11200;51.488;6.668;2023-05-10T11:18:29;16.70;99.90
22071;DHT22;11200;51.488;6.668;2023-05-10T11:21:00;16.70;99.90
22071;DHT22;11200;51.488;6.668;2023-05-10T11:23:32;16.70;99.90
22071;DHT22;11200;51.488;6.668;2023-05-10T11:26:00;16.70;99.90
22071;DHT22;11200;51.488;6.668;2023-05-10T11:28:29;16.70;99.90
22071;DHT22;11200;51.488;6.668;2023-05-10T11:30:54;16.80;99.90
22071;DHT22;11200;51.488;6.668;2023-05-10T11:33:21;16.80;99.90
22071;DHT22;11200;51.488;6.668;2023-05-10T11:35:46;16.80;99.90
22071;DHT22;11200;51.488;6.668;2023-05-10T11:38:13;16.80;99.90
22071;DHT22;11200;51.488;6.668;2023-05-10T11:40:39;16.80;99.90
22071;DHT22;11200;51.488;6.668;2023-05-10T11:43:05;16.80;99.90
22071;DHT22;11200;51.488;6.668;2023-05-10T11:45:35;16.90;99.90
22071;DHT22;11200;51.488;6.668;2023-05-10T11:48:05;16.90;99.90
22071;DHT22;11200;51.488;6.668;2023-05-10T11:50:30;16.90;99.90
22071;DHT22;11200;51.488;6.668;2023-05-10T11:52:57;16.90;99.90
22071;DHT22;11200;51.488;6.668;2023-05-10T11:55:23;16.90;99.90
22071;DHT22;11200;51.488;6.668;2023-05-10T11:57:54;16.90;99.90
22071;DHT22;11200;51.488;6.668;2023-05-10T12:00:20;17.00;99.90
22071;DHT22;11200;51.488;6.668;2023-05-10T12:02:46;17.00;99.90
22071;DHT22;11200;51.488;6.668;2023-05-10T12:05:13;17.00;99.90
22071;DHT22;11200;51.488;6.668;2023-05-10T12:07:38;17.00;99.90
22071;DHT22;11200;51.488;6.668;2023-05-10T12:10:11;17.00;99.90
22071;DHT22;11200;51.488;6.668;2023-05-10T12:12:40;17.00;99.90
22071;DHT22;11200;51.488;6.668;2023-05-10T12:15:20;17.10;99.90
22071;DHT22;11200;51.488;6.668;2023-05-10T12:17:47;17.10;99.90
22071;DHT22;11200;51.488;6.668;2023-05-10T12:20:21;17.10;99.90
22071;DHT22;11200;51.488;6.668;2023-05-10T12:22:52;17.10;99.90
22071;DHT22;11200;51.488;6.668;2023-05-10T12:25:19;17.10;99.90
22071;DHT22;11200;51.488;6.668;2023-05-10T12:27:56;17.20;99.90
22071;DHT22;11200;51.488;6.668;2023-05-10T12:30:27;17.20;99.90
22071;DHT22;11200;51.488;6.668;2023-05-10T12:32:53;17.30;99.90
22071;DHT22;11200;51.488;6.668;2023-05-10T12:35:19;17.30;99.90
22071;DHT22;11200;51.488;6.668;2023-05-10T12:37:50;17.40;99.90
22071;DHT22;11200;51.488;6.668;2023-05-10T12:40:16;17.40;99.90
22071;DHT22;11200;51.488;6.668;2023-05-10T12:42:42;17.50;99.90
22071;DHT22;11200;51.488;6.668;2023-05-10T12:45:10;17.60;99.90
22071;DHT22;11200;51.488;6.668;2023-05-10T12:47:36;17.70;99.90
22071;DHT22;11200;51.488;6.668;2023-05-10T12:50:02;17.80;99.90
22071;DHT22;11200;51.488;6.668;2023-05-10T12:52:29;17.90;99.90
22071;DHT22;11200;51.488;6.668;2023-05-10T12:54:54;18.00;99.90
22071;DHT22;11200;51.488;6.668;2023-05-10T12:57:21;18.10;99.90
22071;DHT22;11200;51.488;6.668;2023-05-10T12:59:47;18.20;99.90
22071;DHT22;11200;51.488;6.668;2023-05-10T13:02:13;18.30;99.90
22071;DHT22;11200;51.488;6.668;2023-05-10T13:04:40;18.40;99.90
22071;DHT22;11200;51.488;6.668;2023-05-10T13:07:07;18.60;99.90
22071;DHT22;11200;51.488;6.668;2023-05-10T13:09:33;18.80;99.90
22071;DHT22;11200;51.488;6.668;2023-05-10T13:11:59;19.50;99.90
22071;DHT22;11200;51.488;6.668;2023-05-10T13:14:25;19.10;99.90
22071;DHT22;11200;51.488;6.668;2023-05-10T13:16:51;19.30;99.90
22071;DHT22;11200;51.488;6.668;2023-05-10T13:19:16;19.40;99.90
22071;DHT22;11200;51.488;6.668;2023-05-10T13:21:43;19.50;99.90
22071;DHT22;11200;51.488;6.668;2023-05-10T13:24:13;19.60;99.90
22071;DHT22;11200;51.488;6.668;2023-05-10T13:26:40;19.70;99.90
22071;DHT22;11200;51.488;6.668;2023-05-10T13:29:06;19.80;99.90
22071;DHT22;11200;51.488;6.668;2023-05-10T13:31:33;19.90;99.90
22071;DHT22;11200;51.488;6.668;2023-05-10T13:33:58;20.00;99.90
22071;DHT22;11200;51.488;6.668;2023-05-10T13:36:24;19.80;99.90
22071;DHT22;11200;51.488;6.668;2023-05-10T13:38:50;20.00;99.90
22071;DHT22;11200;51.488;6.668;2023-05-10T13:41:15;20.10;99.90
22071;DHT22;11200;51.488;6.668;2023-05-10T13:43:41;20.10;99.90
22071;DHT22;11200;51.488;6.668;2023-05-10T13:46:07;20.20;99.90
22071;DHT22;11200;51.488;6.668;2023-05-10T13:48:32;20.20;99.90
22071;DHT22;11200;51.488;6.668;2023-05-10T13:50:58;20.20;99.90
22071;DHT22;11200;51.488;6.668;2023-05-10T13:53:24;20.20;99.90
22071;DHT22;11200;51.488;6.668;2023-05-10T13:55:49;20.30;99.90
22071;DHT22;11200;51.488;6.668;2023-05-10T13:58:15;20.20;99.90
22071;DHT22;11200;51.488;6.668;2023-05-10T14:00:41;20.30;99.90
22071;DHT22;11200;51.488;6.668;2023-05-10T14:03:09;20.30;99.90
22071;DHT22;11200;51.488;6.668;2023-05-10T14:05:36;20.30;99.90
22071;DHT22;11200;51.488;6.668;2023-05-10T14:08:02;20.30;99.90
22071;DHT22;11200;51.488;6.668;2023-05-10T14:10:28;20.30;99.90
22071;DHT22;11200;51.488;6.668;2023-05-10T14:12:53;20.30;99.90
22071;DHT22;11200;51.488;6.668;2023-05-10T14:15:19;20.30;99.90
22071;DHT22;11200;51.488;6.668;2023-05-10T14:17:45;20.30;99.90
22071;DHT22;11200;51.488;6.668;2023-05-10T14:20:11;20.30;99.90
22071;DHT22;11200;51.488;6.668;2023-05-10T14:22:36;20.30;99.90
22071;DHT22;11200;51.488;6.668;2023-05-10T14:25:02;20.40;99.90
22071;DHT22;11200;51.488;6.668;2023-05-10T14:27:31;20.40;99.90
22071;DHT22;11200;51.488;6.668;2023-05-10T14:29:57;20.40;99.90
22071;DHT22;11200;51.488;6.668;2023-05-10T14:32:23;20.50;99.90
22071;DHT22;11200;51.488;6.668;2023-05-10T14:34:48;20.50;99.90
22071;DHT22;11200;51.488;6.668;2023-05-10T14:37:14;20.60;99.90
22071;DHT22;11200;51.488;6.668;2023-05-10T14:39:40;20.70;99.90
22071;DHT22;11200;51.488;6.668;2023-05-10T14:42:07;20.70;99.90
22071;DHT22;11200;51.488;6.668;2023-05-10T14:44:33;20.70;99.90
22071;DHT22;11200;51.488;6.668;2023-05-10T14:47:02;20.80;99.90
22071;DHT22;11200;51.488;6.668;2023-05-10T14:49:28;20.70;99.90
22071;DHT22;11200;51.488;6.668;2023-05-10T14:51:54;20.70;99.90
22071;DHT22;11200;51.488;6.668;2023-05-10T14:54:20;20.70;99.90
22071;DHT22;11200;51.488;6.668;2023-05-10T14:56:45;20.70;99.90
22071;DHT22;11200;51.488;6.668;2023-05-10T14:59:15;20.70;99.90
22071;DHT22;11200;51.488;6.668;2023-05-10T15:01:43;20.70;99.90
22071;DHT22;11200;51.488;6.668;2023-05-10T15:04:10;20.60;99.90
22071;DHT22;11200;51.488;6.668;2023-05-10T15:06:38;20.60;99.90
22071;DHT22;11200;51.488;6.668;2023-05-10T15:09:04;20.50;99.90
22071;DHT22;11200;51.488;6.668;2023-05-10T15:11:30;20.40;99.90
22071;DHT22;11200;51.488;6.668;2023-05-10T15:13:58;20.40;99.90
22071;DHT22;11200;51.488;6.668;2023-05-10T15:16:24;20.30;99.90
22071;DHT22;11200;51.488;6.668;2023-05-10T15:18:50;20.20;99.90
22071;DHT22;11200;51.488;6.668;2023-05-10T15:21:18;20.10;99.90
22071;DHT22;11200;51.488;6.668;2023-05-10T15:23:44;20.10;99.90
22071;DHT22;11200;51.488;6.668;2023-05-10T15:26:09;20.00;99.90
22071;DHT22;11200;51.488;6.668;2023-05-10T15:28:35;20.00;99.90
22071;DHT22;11200;51.488;6.668;2023-05-10T15:31:01;19.80;99.90
22071;DHT22;11200;51.488;6.668;2023-05-10T15:33:26;19.70;99.90
22071;DHT22;11200;51.488;6.668;2023-05-10T15:35:53;19.60;99.90
22071;DHT22;11200;51.488;6.668;2023-05-10T15:38:19;19.50;99.90
22071;DHT22;11200;51.488;6.668;2023-05-10T15:40:44;19.40;99.90
22071;DHT22;11200;51.488;6.668;2023-05-10T15:43:10;19.40;99.90
22071;DHT22;11200;51.488;6.668;2023-05-10T15:45:36;19.30;99.90
22071;DHT22;11200;51.488;6.668;2023-05-10T15:48:02;19.10;99.90
22071;DHT22;11200;51.488;6.668;2023-05-10T15:50:27;19.10;99.90
22071;DHT22;11200;51.488;6.668;2023-05-10T15:52:53;19.00;99.90
22071;DHT22;11200;51.488;6.668;2023-05-10T15:55:19;18.90;99.90